Time;durP1;ratioP1;P1;durP2;ratioP2;P2;SDS_P1;SDS_P2;PMS_P1;PMS_P2;Temp;Humidity;BMP_temperature;BMP_pressure;BME280_temperature;BME280_humidity;BME280_pressure;Samples;Min_cycle;Max_cycle;Signal;HPM_P1;HPM_P2
2021/11/30 00:02:01;;;;;;;8.43;3.85;;;5.10;96.30;;;;;;5064124;28;20056;-63
2021/11/30 00:04:29;;;;;;;10.60;6.13;;;5.10;96.40;;;;;;5065621;28;20131;-60
2021/11/30 00:07:00;;;;;;;8.77;3.88;;;5.10;96.40;;;;;;5068019;28;20541;-60
2021/11/30 00:12:19;;;;;;;6.68;3.65;;;5.00;96.30;;;;;;5068565;28;20044;-60
2021/11/30 00:14:48;;;;;;;6.93;3.95;;;5.10;96.50;;;;;;5068676;28;20114;-60
2021/11/30 00:17:15;;;;;;;6.95;3.33;;;5.10;96.60;;;;;;5066855;28;20095;-60
2021/11/30 00:19:42;;;;;;;6.25;3.03;;;5.10;96.70;;;;;;5066972;28;20048;-60
2021/11/30 00:22:10;;;;;;;5.28;3.08;;;5.20;96.70;;;;;;5065267;28;20059;-60
2021/11/30 00:24:37;;;;;;;8.00;3.00;;;5.20;96.60;;;;;;5066712;28;20048;-60
2021/11/30 00:27:05;;;;;;;4.30;3.08;;;5.30;96.70;;;;;;5065975;28;20477;-61
2021/11/30 00:29:33;;;;;;;7.13;4.03;;;5.30;96.60;;;;;;5065568;28;20561;-60
2021/11/30 00:31:59;;;;;;;7.32;3.10;;;5.30;96.70;;;;;;5066416;28;20052;-60
2021/11/30 00:34:26;;;;;;;5.53;3.95;;;5.30;96.80;;;;;;5066329;28;20072;-60
2021/11/30 00:36:53;;;;;;;4.88;3.63;;;5.30;96.80;;;;;;5068575;28;20049;-60
2021/11/30 00:39:20;;;;;;;5.80;3.50;;;5.40;96.60;;;;;;5068136;28;20101;-59
2021/11/30 00:41:49;;;;;;;5.15;3.38;;;5.40;96.70;;;;;;5067969;28;20109;-60
2021/11/30 00:44:20;;;;;;;8.00;3.60;;;5.40;97.00;;;;;;5068107;28;20048;-60
2021/11/30 00:46:49;;;;;;;5.82;3.17;;;5.50;96.60;;;;;;5068415;28;20048;-60
2021/11/30 00:49:16;;;;;;;5.65;3.00;;;5.60;96.50;;;;;;5067941;28;20052;-60
2021/11/30 00:51:43;;;;;;;5.15;3.15;;;5.60;96.70;;;;;;5068206;28;20102;-60
2021/11/30 00:54:12;;;;;;;4.63;2.63;;;5.60;97.00;;;;;;5066714;28;20052;-60
2021/11/30 00:56:40;;;;;;;6.00;3.67;;;5.70;97.00;;;;;;5068187;28;20052;-60
2021/11/30 00:59:07;;;;;;;5.82;3.17;;;5.70;96.60;;;;;;5067628;28;20049;-60
2021/11/30 01:01:36;;;;;;;8.63;3.22;;;5.80;96.70;;;;;;5066368;28;20063;-61
2021/11/30 01:04:03;;;;;;;4.60;2.70;;;5.80;96.70;;;;;;5067146;28;20060;-60
2021/11/30 01:06:29;;;;;;;6.10;2.70;;;5.90;96.80;;;;;;5060682;28;20041;-59
2021/11/30 01:08:56;;;;;;;6.82;3.03;;;5.90;96.50;;;;;;5068052;28;20079;-59
2021/11/30 01:11:23;;;;;;;7.13;3.75;;;5.90;96.70;;;;;;5067078;28;20483;-59
2021/11/30 01:13:50;;;;;;;5.40;3.35;;;6.00;96.70;;;;;;5067473;28;20131;-60
2021/11/30 01:16:16;;;;;;;10.82;3.28;;;6.00;96.60;;;;;;5067482;28;20084;-60
2021/11/30 01:18:43;;;;;;;5.30;3.35;;;6.00;96.70;;;;;;5068101;28;20055;-61
2021/11/30 01:21:10;;;;;;;8.38;3.60;;;6.00;96.60;;;;;;5066768;28;20119;-61
2021/11/30 01:23:37;;;;;;;6.45;3.47;;;6.10;96.60;;;;;;5067093;28;20048;-61
2021/11/30 01:26:04;;;;;;;5.85;3.13;;;6.10;96.90;;;;;;5067882;28;20377;-60
2021/11/30 01:28:31;;;;;;;5.70;3.50;;;6.20;97.00;;;;;;5066913;28;20109;-60
2021/11/30 01:30:58;;;;;;;6.68;3.65;;;6.20;96.70;;;;;;5066059;28;20045;-60
2021/11/30 01:33:25;;;;;;;5.70;3.47;;;6.20;96.80;;;;;;5067651;28;20118;-61
2021/11/30 01:35:52;;;;;;;5.93;4.20;;;6.30;96.90;;;;;;5067655;28;20040;-59
2021/11/30 01:38:19;;;;;;;5.18;3.65;;;6.30;96.70;;;;;;5067923;28;20049;-60
2021/11/30 01:40:46;;;;;;;6.20;3.63;;;6.40;96.60;;;;;;5067382;28;20044;-60
2021/11/30 01:43:19;;;;;;;5.82;4.15;;;6.40;96.90;;;;;;5066878;28;20056;-61
2021/11/30 01:45:57;;;;;;;6.22;3.53;;;6.40;96.70;;;;;;5067540;28;20103;-59
2021/11/30 01:50:57;;;;;;;5.55;4.15;;;6.40;96.80;;;;;;5067751;28;20468;-60
2021/11/30 01:53:24;;;;;;;8.07;4.53;;;6.50;96.70;;;;;;5066037;28;20056;-60
2021/11/30 01:55:51;;;;;;;9.38;4.90;;;6.80;96.70;;;;;;5067245;28;20499;-61
2021/11/30 01:58:18;;;;;;;9.23;5.32;;;6.50;96.80;;;;;;5067385;28;20159;-60
2021/11/30 02:00:45;;;;;;;6.82;5.40;;;6.50;96.80;;;;;;5066329;28;20145;-60
2021/11/30 02:03:12;;;;;;;7.25;4.55;;;6.50;96.90;;;;;;5065788;28;20048;-60
2021/11/30 02:05:39;;;;;;;9.43;5.20;;;6.50;96.90;;;;;;4718335;27;10000924;-60
2021/11/30 02:08:09;;;;;;;12.00;5.88;;;6.50;97.00;;;;;;5068787;28;20094;-60
2021/11/30 02:10:36;;;;;;;7.47;5.93;;;6.50;96.70;;;;;;5067479;28;20135;-60
2021/11/30 02:13:03;;;;;;;8.27;5.43;;;6.50;97.00;;;;;;5067131;28;20044;-60
2021/11/30 02:15:31;;;;;;;9.82;6.03;;;6.60;96.80;;;;;;5067249;28;20110;-60
2021/11/30 02:18:01;;;;;;;11.00;6.03;;;6.60;96.80;;;;;;5067352;28;20049;-60
2021/11/30 02:20:28;;;;;;;13.07;6.55;;;6.60;96.90;;;;;;5067608;28;20102;-60
2021/11/30 02:22:56;;;;;;;10.05;5.90;;;6.60;96.70;;;;;;5067148;28;20196;-60
2021/11/30 02:25:23;;;;;;;10.00;6.43;;;6.60;96.90;;;;;;5067088;28;20044;-60
2021/11/30 02:27:52;;;;;;;12.20;7.03;;;6.70;96.90;;;;;;5066959;28;20091;-60
2021/11/30 02:30:19;;;;;;;9.02;6.32;;;6.70;96.80;;;;;;5067259;28;20079;-59
2021/11/30 02:32:46;;;;;;;11.45;7.07;;;6.70;96.80;;;;;;5067346;28;20442;-60
2021/11/30 02:35:15;;;;;;;12.55;7.30;;;6.70;97.20;;;;;;5065638;28;20139;-60
2021/11/30 02:37:45;;;;;;;10.82;7.10;;;6.70;97.20;;;;;;5067257;28;20037;-59
2021/11/30 02:40:12;;;;;;;12.82;6.85;;;6.70;97.00;;;;;;5055734;28;20496;-60
2021/11/30 02:42:39;;;;;;;11.20;6.63;;;6.70;97.30;;;;;;5069080;28;20483;-61
2021/11/30 02:45:06;;;;;;;11.07;6.57;;;6.80;97.00;;;;;;5070733;28;20094;-60
2021/11/30 02:47:33;;;;;;;12.10;8.15;;;6.80;97.10;;;;;;5069524;28;20091;-59
2021/11/30 02:50:00;;;;;;;14.68;7.68;;;6.90;96.90;;;;;;5069651;28;20045;-59
2021/11/30 02:52:27;;;;;;;9.35;6.55;;;6.80;97.10;;;;;;5071138;28;20503;-60
2021/11/30 02:54:54;;;;;;;11.63;6.93;;;6.90;97.00;;;;;;5070937;28;20064;-60
2021/11/30 02:57:22;;;;;;;9.43;6.47;;;6.90;97.20;;;;;;5070873;28;20393;-59
2021/11/30 02:59:50;;;;;;;11.57;7.40;;;6.90;97.20;;;;;;5070462;28;20079;-60
2021/11/30 03:02:24;;;;;;;10.68;6.72;;;6.90;97.10;;;;;;5070633;28;20110;-60
2021/11/30 03:04:53;;;;;;;14.05;6.53;;;6.90;97.20;;;;;;5070646;28;20054;-60
2021/11/30 03:07:27;;;;;;;10.57;6.95;;;6.90;97.30;;;;;;5070997;28;20465;-60
2021/11/30 03:09:55;;;;;;;12.75;7.43;;;6.90;97.20;;;;;;5069238;28;20079;-60
2021/11/30 03:12:22;;;;;;;13.18;7.18;;;6.90;97.10;;;;;;5069022;28;20080;-60
2021/11/30 03:14:49;;;;;;;10.27;7.05;;;6.90;97.00;;;;;;5070311;28;20045;-60
2021/11/30 03:17:16;;;;;;;11.25;6.90;;;7.00;97.20;;;;;;5070277;28;20044;-61
2021/11/30 03:19:43;;;;;;;10.73;6.47;;;7.00;97.00;;;;;;5068638;28;20056;-60
2021/11/30 03:22:10;;;;;;;12.27;6.75;;;7.00;97.10;;;;;;5069824;28;20052;-60
2021/11/30 03:24:36;;;;;;;11.43;6.53;;;7.00;97.20;;;;;;5070139;28;20052;-61
2021/11/30 03:27:04;;;;;;;10.70;6.63;;;7.00;97.30;;;;;;5068474;28;20052;-61
2021/11/30 03:29:31;;;;;;;11.40;7.00;;;7.10;97.00;;;;;;5069588;28;20170;-60
2021/11/30 03:32:08;;;;;;;12.50;7.00;;;7.10;97.00;;;;;;5068705;28;20041;-59
2021/11/30 03:34:36;;;;;;;11.52;8.05;;;7.10;97.10;;;;;;5069319;28;20131;-61
2021/11/30 03:37:06;;;;;;;11.30;7.72;;;7.10;97.10;;;;;;5069010;28;20063;-60
2021/11/30 03:39:33;;;;;;;11.52;6.72;;;7.10;97.00;;;;;;5069458;28;20110;-60
2021/11/30 03:42:00;;;;;;;10.40;5.93;;;7.20;97.20;;;;;;5069378;28;20078;-60
2021/11/30 03:44:27;;;;;;;9.27;6.38;;;7.20;97.00;;;;;;5069866;28;20674;-61
2021/11/30 03:46:54;;;;;;;13.35;7.25;;;7.20;97.00;;;;;;5069645;28;20049;-60
2021/11/30 03:49:21;;;;;;;8.32;5.82;;;7.30;97.00;;;;;;5068006;28;20056;-60
2021/11/30 03:51:48;;;;;;;12.02;6.38;;;7.30;96.70;;;;;;5068261;28;20056;-60
2021/11/30 03:54:16;;;;;;;10.50;5.90;;;7.30;96.90;;;;;;5069443;28;20494;-61
2021/11/30 03:56:42;;;;;;;8.98;5.72;;;7.30;96.70;;;;;;5067538;28;20127;-61
2021/11/30 03:59:11;;;;;;;10.05;6.07;;;7.40;96.60;;;;;;5069348;28;20052;-61
2021/11/30 04:01:38;;;;;;;12.95;5.75;;;7.40;96.70;;;;;;5067059;28;20311;-61
2021/11/30 04:04:24;;;;;;;11.18;5.80;;;7.40;96.90;;;;;;5052527;28;20198;-60
2021/11/30 04:06:52;;;;;;;8.57;5.18;;;7.40;96.80;;;;;;5068776;28;20529;-60
2021/11/30 04:09:19;;;;;;;9.85;6.03;;;7.40;96.70;;;;;;5068994;28;20087;-62
2021/11/30 04:11:47;;;;;;;9.73;6.78;;;7.40;96.60;;;;;;5068574;28;20045;-60
2021/11/30 04:14:14;;;;;;;9.43;6.97;;;7.50;96.80;;;;;;5069114;28;20052;-60
2021/11/30 04:16:41;;;;;;;8.93;5.78;;;7.50;96.80;;;;;;5067223;28;20048;-60
2021/11/30 04:19:08;;;;;;;9.00;6.18;;;7.50;96.70;;;;;;5068189;28;20099;-60
2021/11/30 04:21:35;;;;;;;9.32;6.18;;;7.60;96.90;;;;;;5067928;28;20687;-60
2021/11/30 04:24:02;;;;;;;11.48;5.65;;;7.50;96.70;;;;;;5069351;28;20048;-60
2021/11/30 04:26:29;;;;;;;11.38;5.90;;;7.60;96.70;;;;;;5067397;28;20051;-59
2021/11/30 04:28:57;;;;;;;8.98;5.15;;;7.60;96.60;;;;;;5068472;28;20250;-60
2021/11/30 04:31:24;;;;;;;8.90;5.18;;;7.50;96.50;;;;;;5068664;28;20048;-60
2021/11/30 04:33:50;;;;;;;8.75;5.43;;;7.60;96.60;;;;;;5067435;28;20037;-59
2021/11/30 04:36:17;;;;;;;6.72;4.95;;;7.60;96.50;;;;;;5067145;28;20048;-60
2021/11/30 04:38:44;;;;;;;8.65;5.47;;;7.60;96.60;;;;;;5068855;28;20545;-59
2021/11/30 04:41:11;;;;;;;9.38;5.70;;;7.60;96.50;;;;;;5067449;28;20044;-60
2021/11/30 04:43:38;;;;;;;7.20;4.85;;;7.50;96.60;;;;;;5068548;28;20044;-60
2021/11/30 04:46:16;;;;;;;8.73;5.18;;;7.60;96.70;;;;;;5068955;28;20439;-60
2021/11/30 04:48:52;;;;;;;8.20;4.78;;;7.60;96.60;;;;;;5065172;28;20155;-60
2021/11/30 04:51:19;;;;;;;6.65;4.60;;;7.60;96.50;;;;;;5068485;28;20071;-61
2021/11/30 04:53:46;;;;;;;7.40;4.60;;;7.60;96.50;;;;;;5067921;28;20665;-59
2021/11/30 04:56:14;;;;;;;8.57;4.35;;;7.60;96.60;;;;;;5068436;28;20106;-61
2021/11/30 04:58:42;;;;;;;5.45;3.88;;;7.70;96.60;;;;;;5068173;28;20139;-60
2021/11/30 05:01:10;;;;;;;6.18;4.40;;;7.70;96.50;;;;;;5067016;28;20075;-60
2021/11/30 05:03:37;;;;;;;7.38;4.55;;;7.70;96.40;;;;;;5067879;28;20052;-60
2021/11/30 05:06:04;;;;;;;5.35;3.85;;;7.70;96.40;;;;;;5067289;28;20060;-59
2021/11/30 05:08:32;;;;;;;7.60;4.32;;;7.70;96.50;;;;;;5066506;28;20056;-60
2021/11/30 05:10:59;;;;;;;6.53;3.60;;;7.70;96.50;;;;;;5050536;28;20132;-60
2021/11/30 05:13:26;;;;;;;4.60;3.58;;;7.70;96.60;;;;;;5068073;28;20084;-59
2021/11/30 05:15:53;;;;;;;8.52;3.35;;;7.60;96.60;;;;;;5068106;28;20122;-60
2021/11/30 05:18:23;;;;;;;5.38;3.97;;;7.60;96.60;;;;;;5067065;28;20106;-60
2021/11/30 05:20:51;;;;;;;5.80;4.65;;;7.60;96.80;;;;;;5068181;28;20540;-60
2021/11/30 05:23:27;;;;;;;6.30;3.38;;;7.60;96.50;;;;;;5068396;28;20048;-60
2021/11/30 05:25:55;;;;;;;6.05;2.70;;;7.70;96.60;;;;;;5068499;28;20523;-59
2021/11/30 05:28:23;;;;;;;9.15;5.20;;;7.70;96.90;;;;;;5067845;28;20090;-60
2021/11/30 05:30:50;;;;;;;7.68;3.40;;;7.80;96.40;;;;;;5068114;28;20097;-60
2021/11/30 05:33:16;;;;;;;6.85;3.40;;;7.70;96.50;;;;;;5067792;28;20083;-60
2021/11/30 05:35:43;;;;;;;5.50;2.65;;;7.70;96.40;;;;;;5067520;28;20546;-60
2021/11/30 05:38:10;;;;;;;5.22;3.10;;;7.70;96.60;;;;;;5068159;28;20547;-60
2021/11/30 05:40:40;;;;;;;5.07;3.05;;;7.70;96.60;;;;;;5066893;28;20105;-60
2021/11/30 05:43:07;;;;;;;6.78;3.42;;;7.70;96.80;;;;;;5067092;28;20476;-59
2021/11/30 05:45:34;;;;;;;4.32;2.83;;;7.70;96.60;;;;;;5067516;28;20061;-60
2021/11/30 05:48:01;;;;;;;6.40;3.15;;;7.70;96.60;;;;;;5067845;28;20118;-60
2021/11/30 05:50:28;;;;;;;4.00;2.33;;;7.70;96.60;;;;;;5068032;28;20487;-60
2021/11/30 05:52:55;;;;;;;3.58;2.63;;;7.70;96.70;;;;;;5066638;28;20450;-60
2021/11/30 05:55:22;;;;;;;5.38;3.17;;;7.70;96.80;;;;;;5068016;28;20045;-60
2021/11/30 05:57:48;;;;;;;5.55;3.00;;;7.70;96.70;;;;;;5067747;28;20045;-61
2021/11/30 06:00:17;;;;;;;4.45;2.70;;;7.70;96.60;;;;;;5066179;28;20092;-60
2021/11/30 06:03:02;;;;;;;8.35;2.92;;;7.70;96.90;;;;;;5067288;28;20507;-60
2021/11/30 06:05:29;;;;;;;5.38;2.78;;;7.70;96.60;;;;;;5066601;28;20102;-63
2021/11/30 06:07:56;;;;;;;4.78;2.17;;;7.70;96.80;;;;;;5067702;28;20288;-60
2021/11/30 06:10:23;;;;;;;4.63;2.50;;;7.80;96.70;;;;;;5066858;28;20080;-60
2021/11/30 06:12:50;;;;;;;4.30;2.47;;;7.80;96.70;;;;;;5067351;28;20098;-61
2021/11/30 06:15:17;;;;;;;4.82;2.72;;;7.80;96.90;;;;;;5066183;28;20270;-61
2021/11/30 06:17:44;;;;;;;6.25;2.13;;;7.80;96.90;;;;;;5071232;28;20563;-60
2021/11/30 06:20:11;;;;;;;2.88;1.90;;;7.90;96.90;;;;;;5071134;28;20407;-61
2021/11/30 06:22:39;;;;;;;8.38;3.33;;;7.90;96.80;;;;;;5071027;28;20549;-60
2021/11/30 06:25:06;;;;;;;4.03;2.28;;;7.90;96.70;;;;;;5070665;28;20049;-61
2021/11/30 06:27:33;;;;;;;4.03;2.63;;;7.90;96.70;;;;;;5068987;28;20531;-62
2021/11/30 06:30:00;;;;;;;4.78;2.58;;;8.00;96.80;;;;;;5070716;28;20105;-60
2021/11/30 06:32:27;;;;;;;3.63;2.28;;;8.00;97.10;;;;;;5070943;28;20056;-62
2021/11/30 06:34:54;;;;;;;5.90;2.45;;;8.00;96.70;;;;;;5070552;28;20052;-60
2021/11/30 06:37:21;;;;;;;6.32;2.38;;;8.10;96.60;;;;;;5070312;28;20084;-60
2021/11/30 06:39:51;;;;;;;2.67;2.10;;;8.10;96.70;;;;;;5070740;28;20302;-61
2021/11/30 06:42:18;;;;;;;3.65;1.80;;;8.10;96.70;;;;;;5068615;28;20044;-62
2021/11/30 06:44:46;;;;;;;6.22;2.40;;;8.10;96.50;;;;;;5070793;28;20460;-61
2021/11/30 06:47:13;;;;;;;4.28;1.73;;;8.20;96.70;;;;;;5069692;28;20459;-61
2021/11/30 06:49:40;;;;;;;3.78;1.77;;;8.20;96.70;;;;;;5070358;28;20496;-61
2021/11/30 06:52:07;;;;;;;3.53;2.10;;;8.20;96.70;;;;;;5070231;28;20502;-61
2021/11/30 06:54:34;;;;;;;4.50;1.95;;;8.30;96.60;;;;;;5070356;28;20052;-61
2021/11/30 06:57:01;;;;;;;4.40;1.80;;;8.20;96.60;;;;;;5068589;28;20090;-60
2021/11/30 06:59:32;;;;;;;2.30;1.90;;;8.30;96.70;;;;;;5067888;28;20076;-61
2021/11/30 07:01:59;;;;;;;4.28;1.77;;;8.20;96.60;;;;;;5068426;28;20451;-60
2021/11/30 07:04:27;;;;;;;2.65;2.08;;;8.30;96.50;;;;;;5070120;28;20127;-60
2021/11/30 07:07:03;;;;;;;2.38;1.75;;;8.40;96.60;;;;;;5069767;28;20044;-61
2021/11/30 07:09:59;;;;;;;5.43;2.08;;;8.40;96.60;;;;;;5068779;28;20110;-61
2021/11/30 07:14:58;;;;;;;3.70;1.83;;;8.40;96.60;;;;;;5068851;28;20049;-60
2021/11/30 07:17:25;;;;;;;3.03;1.90;;;8.40;96.70;;;;;;5069478;28;20051;-61
2021/11/30 07:19:52;;;;;;;4.22;2.25;;;8.40;96.50;;;;;;5070388;28;20048;-61
2021/11/30 07:22:20;;;;;;;4.97;2.70;;;8.40;96.40;;;;;;5069582;28;20085;-60
2021/11/30 07:24:47;;;;;;;7.13;2.30;;;8.40;96.50;;;;;;5069838;28;20530;-60
2021/11/30 07:27:14;;;;;;;4.75;2.35;;;8.50;96.60;;;;;;5069147;28;20049;-62
2021/11/30 07:29:41;;;;;;;5.00;2.28;;;8.50;96.50;;;;;;5069476;28;20220;-62
2021/11/30 07:32:08;;;;;;;5.05;2.08;;;8.50;96.60;;;;;;5068307;28;20054;-60
2021/11/30 07:34:35;;;;;;;6.22;2.38;;;8.50;96.60;;;;;;5069719;28;20492;-61
2021/11/30 07:37:02;;;;;;;3.47;1.80;;;8.60;96.60;;;;;;5069664;28;20036;-60
2021/11/30 07:39:29;;;;;;;7.40;2.53;;;8.60;96.50;;;;;;4715489;27;10000482;-58
2021/11/30 07:41:56;;;;;;;3.63;2.33;;;8.60;96.50;;;;;;5064487;28;20556;-60
2021/11/30 07:44:23;;;;;;;5.65;2.35;;;8.60;96.70;;;;;;5059774;28;20118;-60
2021/11/30 07:46:49;;;;;;;3.45;2.15;;;8.60;96.50;;;;;;5063636;28;20045;-60
2021/11/30 07:49:19;;;;;;;3.20;2.58;;;8.60;96.60;;;;;;5064556;28;20067;-61
2021/11/30 07:51:46;;;;;;;4.35;2.60;;;8.60;96.60;;;;;;5064746;28;20056;-60
2021/11/30 07:54:13;;;;;;;6.07;2.42;;;8.60;96.70;;;;;;5065356;28;20114;-60
2021/11/30 07:56:40;;;;;;;4.63;2.25;;;8.60;96.50;;;;;;5064846;28;20526;-60
2021/11/30 07:59:08;;;;;;;5.68;2.90;;;8.60;96.60;;;;;;5063545;28;20529;-60
2021/11/30 08:01:35;;;;;;;5.18;2.10;;;8.70;96.50;;;;;;5064483;28;20083;-59
2021/11/30 08:04:01;;;;;;;6.47;4.28;;;8.70;96.70;;;;;;5063329;28;20103;-59
2021/11/30 08:06:31;;;;;;;4.28;2.60;;;8.70;96.60;;;;;;5065286;28;20071;-59
2021/11/30 08:08:57;;;;;;;5.25;2.53;;;8.80;96.70;;;;;;5064245;28;20098;-60
2021/11/30 08:11:24;;;;;;;3.63;2.38;;;8.80;96.60;;;;;;5063414;28;20049;-59
2021/11/30 08:13:51;;;;;;;6.28;2.38;;;8.80;96.50;;;;;;5063907;28;20049;-59
2021/11/30 08:16:21;;;;;;;4.75;2.47;;;8.90;96.50;;;;;;5065742;28;20058;-58
2021/11/30 08:18:48;;;;;;;5.18;2.03;;;9.00;96.40;;;;;;5064927;28;20090;-59
2021/11/30 08:21:15;;;;;;;2.60;1.92;;;8.90;96.40;;;;;;5064943;28;20139;-60
2021/11/30 08:23:42;;;;;;;3.88;2.42;;;8.90;96.50;;;;;;5064692;28;20106;-60
2021/11/30 08:26:12;;;;;;;3.13;2.25;;;8.90;96.40;;;;;;5064246;28;20052;-60
2021/11/30 08:28:39;;;;;;;5.93;2.15;;;8.80;96.60;;;;;;5065265;28;20122;-58
2021/11/30 08:31:06;;;;;;;5.70;2.85;;;8.80;96.50;;;;;;5060312;28;20066;-54
2021/11/30 08:33:33;;;;;;;3.88;2.33;;;8.90;96.60;;;;;;5064176;28;20056;-57
2021/11/30 08:36:00;;;;;;;4.72;2.25;;;8.90;96.40;;;;;;5063823;28;20139;-57
2021/11/30 08:38:27;;;;;;;3.30;2.22;;;8.90;96.60;;;;;;5065632;28;20078;-57
2021/11/30 08:40:55;;;;;;;6.88;1.80;;;8.90;96.70;;;;;;5062960;28;20059;-58
2021/11/30 08:43:22;;;;;;;2.17;1.75;;;8.90;96.60;;;;;;5064469;28;20048;-57
2021/11/30 08:45:50;;;;;;;4.40;1.80;;;9.00;96.60;;;;;;5064484;28;20049;-59
2021/11/30 08:48:16;;;;;;;5.53;2.22;;;9.00;96.40;;;;;;5064207;28;20084;-58
2021/11/30 08:50:43;;;;;;;5.25;2.17;;;9.10;96.50;;;;;;5053609;28;20106;-57
2021/11/30 08:53:10;;;;;;;5.95;2.78;;;9.10;96.60;;;;;;5063918;28;20114;-57
2021/11/30 08:55:37;;;;;;;6.13;2.60;;;9.10;96.50;;;;;;5062885;28;20045;-58
2021/11/30 08:58:04;;;;;;;3.88;2.60;;;9.20;96.50;;;;;;5064506;28;20076;-58
2021/11/30 09:00:31;;;;;;;4.90;3.13;;;9.20;96.60;;;;;;5062420;28;20591;-56
2021/11/30 09:02:58;;;;;;;7.85;3.60;;;9.30;96.50;;;;;;5064069;28;20055;-60
2021/11/30 09:05:25;;;;;;;6.25;3.58;;;9.30;96.40;;;;;;5064550;28;20060;-58
2021/11/30 09:07:51;;;;;;;8.55;3.17;;;9.30;96.40;;;;;;5064716;28;20041;-59
2021/11/30 09:10:19;;;;;;;5.60;2.50;;;9.60;96.50;;;;;;5064869;28;20114;-59
2021/11/30 09:12:46;;;;;;;6.53;2.28;;;9.40;96.40;;;;;;5064816;28;20559;-57
2021/11/30 09:15:13;;;;;;;7.75;2.85;;;9.50;96.30;;;;;;5064102;28;20087;-59
2021/11/30 09:17:49;;;;;;;7.90;2.75;;;9.50;96.30;;;;;;5064118;28;20081;-58
2021/11/30 09:20:15;;;;;;;3.65;2.25;;;9.50;96.20;;;;;;5064673;28;20048;-57
2021/11/30 09:22:42;;;;;;;6.30;1.88;;;9.50;96.20;;;;;;5064225;28;20092;-57
2021/11/30 09:25:10;;;;;;;4.88;1.40;;;9.60;96.20;;;;;;5064412;28;20052;-57
2021/11/30 09:27:37;;;;;;;4.45;1.85;;;9.60;96.10;;;;;;5063897;28;20084;-57
2021/11/30 09:30:06;;;;;;;3.47;1.73;;;9.60;96.10;;;;;;5063579;28;20539;-58
2021/11/30 09:32:33;;;;;;;3.65;1.88;;;9.70;96.00;;;;;;5064688;28;20083;-58
2021/11/30 09:35:05;;;;;;;5.15;2.08;;;9.80;96.00;;;;;;5064777;28;20442;-56
2021/11/30 09:37:34;;;;;;;6.00;2.45;;;9.80;95.90;;;;;;5063814;28;20469;-57
2021/11/30 09:40:01;;;;;;;5.13;2.53;;;9.80;95.80;;;;;;5063327;28;20094;-58
2021/11/30 09:42:28;;;;;;;8.23;2.55;;;9.90;95.90;;;;;;5064065;28;20074;-58
2021/11/30 09:44:55;;;;;;;5.32;2.25;;;9.90;95.80;;;;;;5063458;28;20145;-60
2021/11/30 09:47:22;;;;;;;7.22;2.92;;;10.00;95.80;;;;;;5064384;28;20286;-58
2021/11/30 09:49:48;;;;;;;5.78;2.88;;;9.90;95.80;;;;;;5064494;28;20087;-59
2021/11/30 09:52:15;;;;;;;3.58;2.33;;;9.90;95.80;;;;;;5069468;28;20121;-59
2021/11/30 09:54:42;;;;;;;3.17;2.30;;;9.90;95.90;;;;;;5068371;28;20140;-57
2021/11/30 09:57:09;;;;;;;5.65;2.88;;;9.90;95.80;;;;;;5064111;28;20082;-56
2021/11/30 09:59:36;;;;;;;4.18;3.25;;;10.00;95.90;;;;;;5066847;28;20045;-60
2021/11/30 10:02:03;;;;;;;5.20;3.05;;;10.00;95.80;;;;;;5068046;28;20137;-59
2021/11/30 10:04:30;;;;;;;3.30;2.72;;;10.10;95.90;;;;;;5068292;28;20032;-58
2021/11/30 10:06:57;;;;;;;6.65;2.55;;;10.10;95.80;;;;;;5068242;28;20048;-57
2021/11/30 10:09:25;;;;;;;6.50;3.03;;;10.20;95.60;;;;;;5068086;28;20825;-58
2021/11/30 10:11:59;;;;;;;4.57;2.70;;;10.20;95.70;;;;;;5068164;28;20056;-56
2021/11/30 10:14:33;;;;;;;6.03;2.67;;;10.30;95.60;;;;;;5066321;28;20076;-56
2021/11/30 10:17:09;;;;;;;;;;;10.30;95.60;;;;;;5067380;28;20082;-57
2021/11/30 10:19:37;;;;;;;3.13;1.90;;;10.40;95.30;;;;;;5067964;28;19932;-57
2021/11/30 10:22:04;;;;;;;6.45;2.70;;;10.50;95.50;;;;;;5067857;28;20139;-57
2021/11/30 10:24:31;;;;;;;6.55;2.65;;;10.40;95.40;;;;;;5067570;28;20106;-59
2021/11/30 10:26:58;;;;;;;4.30;2.67;;;10.40;95.20;;;;;;5066591;28;20127;-57
2021/11/30 10:29:25;;;;;;;7.65;3.15;;;10.50;95.30;;;;;;5067857;28;20087;-57
2021/11/30 10:31:53;;;;;;;6.00;2.78;;;10.50;95.30;;;;;;5067961;28;20162;-57
2021/11/30 10:34:25;;;;;;;8.43;2.88;;;10.50;95.30;;;;;;5067610;28;20072;-57
2021/11/30 10:36:53;;;;;;;4.97;2.72;;;10.60;95.30;;;;;;5067739;28;20214;-57
2021/11/30 10:39:29;;;;;;;5.40;2.67;;;10.60;95.40;;;;;;5066780;28;20095;-58
2021/11/30 10:42:18;;;;;;;4.68;3.08;;;10.70;95.10;;;;;;5072848;28;20071;-58
2021/11/30 10:44:46;;;;;;;4.57;2.65;;;10.70;94.90;;;;;;5074212;28;20227;-58
2021/11/30 10:47:15;;;;;;;5.32;2.90;;;10.80;95.10;;;;;;5067173;28;20049;-59
2021/11/30 10:50:08;;;;;;;4.10;2.47;;;10.80;95.00;;;;;;5065590;28;20588;-59
2021/11/30 10:52:35;;;;;;;6.47;2.47;;;10.90;94.90;;;;;;5052774;28;20106;-58
2021/11/30 10:55:10;;;;;;;8.27;3.28;;;10.90;95.00;;;;;;5065680;28;20554;-58
2021/11/30 10:57:37;;;;;;;15.05;5.03;;;10.90;94.90;;;;;;5064567;28;20044;-57
2021/11/30 11:00:08;;;;;;;5.22;1.95;;;10.90;95.00;;;;;;5067744;28;20072;-58
2021/11/30 11:03:00;;;;;;;3.80;2.67;;;11.00;94.80;;;;;;5064024;28;20235;-57
2021/11/30 11:05:30;;;;;;;5.32;2.80;;;11.00;94.80;;;;;;5065733;28;20437;-58
2021/11/30 11:08:04;;;;;;;4.55;2.50;;;11.00;94.80;;;;;;5066381;28;20094;-59
2021/11/30 11:10:32;;;;;;;4.70;2.15;;;11.00;94.80;;;;;;5056612;28;20065;-59
2021/11/30 11:13:30;;;;;;;3.90;2.22;;;11.00;94.80;;;;;;5064931;28;20079;-59
2021/11/30 11:16:04;;;;;;;5.70;2.70;;;11.10;94.60;;;;;;5064212;28;20068;-58
2021/11/30 11:18:32;;;;;;;;;;;11.10;94.80;;;;;;5065538;28;20114;-57
2021/11/30 11:21:18;;;;;;;4.43;2.55;;;11.10;94.60;;;;;;5065123;28;19932;-60
2021/11/30 11:24:07;;;;;;;4.43;2.50;;;11.10;94.60;;;;;;5065696;28;20076;-56
2021/11/30 11:26:50;;;;;;;2.47;2.08;;;11.10;94.60;;;;;;5050737;28;20722;-55
2021/11/30 11:29:27;;;;;;;2.50;2.17;;;11.10;94.70;;;;;;5060875;28;20052;-58
2021/11/30 11:31:59;;;;;;;4.65;2.28;;;11.10;94.60;;;;;;5065745;28;20090;-58
2021/11/30 11:34:30;;;;;;;4.20;2.20;;;11.10;94.60;;;;;;5064252;28;20087;-57
2021/11/30 11:36:58;;;;;;;2.17;1.60;;;11.20;94.50;;;;;;5065667;28;20212;-57
2021/11/30 11:39:25;;;;;;;3.97;2.13;;;11.20;94.40;;;;;;5066035;28;20048;-59
2021/11/30 11:41:57;;;;;;;3.53;2.22;;;11.20;94.60;;;;;;5066781;28;20072;-57
2021/11/30 11:44:24;;;;;;;7.80;2.20;;;11.20;94.30;;;;;;5068199;28;20056;-58
2021/11/30 11:46:58;;;;;;;6.45;1.90;;;11.20;94.30;;;;;;5068210;28;20076;-58
2021/11/30 11:49:25;;;;;;;6.47;1.85;;;11.30;94.30;;;;;;5028671;28;1155546;-58
2021/11/30 11:51:53;;;;;;;3.55;2.60;;;11.30;94.20;;;;;;5078388;28;20511;-57
2021/11/30 11:54:30;;;;;;;6.30;2.53;;;11.30;94.20;;;;;;5067815;28;20044;-59
2021/11/30 11:57:08;;;;;;;8.23;2.42;;;11.40;94.50;;;;;;5068194;28;20446;-59
2021/11/30 11:59:44;;;;;;;4.57;2.17;;;11.40;94.20;;;;;;5069796;28;20048;-60
2021/11/30 12:02:20;;;;;;;4.68;2.08;;;11.40;94.20;;;;;;5068459;28;20064;-59
2021/11/30 12:04:54;;;;;;;3.58;2.28;;;11.40;94.00;;;;;;5070015;28;20139;-58
2021/11/30 12:07:22;;;;;;;5.72;2.38;;;11.40;94.10;;;;;;5068983;28;20052;-62
2021/11/30 12:09:49;;;;;;;7.68;2.45;;;11.40;94.30;;;;;;5069064;28;20087;-60
2021/11/30 12:12:22;;;;;;;6.55;2.50;;;11.40;94.20;;;;;;5069330;28;20088;-59
2021/11/30 12:14:59;;;;;;;2.42;2.22;;;11.50;94.00;;;;;;5070903;28;20040;-59
2021/11/30 12:17:27;;;;;;;7.15;2.30;;;11.50;94.30;;;;;;5070185;28;20052;-59
2021/11/30 12:19:57;;;;;;;3.15;2.67;;;11.50;94.10;;;;;;5075613;28;20451;-59
2021/11/30 12:22:46;;;;;;;5.78;2.65;;;11.50;94.10;;;;;;5082365;28;20102;-64
2021/11/30 12:25:25;;;;;;;5.45;2.80;;;11.50;93.90;;;;;;5050429;28;20527;-58
2021/11/30 12:27:56;;;;;;;5.25;2.53;;;11.50;94.00;;;;;;5069139;28;20044;-57
2021/11/30 12:30:45;;;;;;;5.30;2.58;;;11.50;93.90;;;;;;5068302;28;20106;-59
2021/11/30 12:33:14;;;;;;;5.07;2.45;;;11.50;94.00;;;;;;5069148;28;20056;-60
2021/11/30 12:35:48;;;;;;;5.05;3.00;;;11.50;93.70;;;;;;5068883;28;20090;-60
2021/11/30 12:38:17;;;;;;;4.10;2.60;;;11.60;93.90;;;;;;5067411;28;20052;-59
2021/11/30 12:40:45;;;;;;;5.90;2.58;;;11.60;93.90;;;;;;5067482;28;20052;-60
2021/11/30 12:43:13;;;;;;;6.93;2.50;;;11.60;93.90;;;;;;5077756;28;20407;-60
2021/11/30 12:45:46;;;;;;;4.60;2.22;;;11.60;93.80;;;;;;5089150;28;20073;-58
2021/11/30 12:48:20;;;;;;;12.90;3.00;;;11.60;93.50;;;;;;5081602;28;20088;-59
2021/11/30 12:50:47;;;;;;;4.90;2.50;;;11.60;93.80;;;;;;5068500;28;20110;-58
2021/11/30 12:53:14;;;;;;;6.57;3.25;;;11.60;93.80;;;;;;5067871;28;20044;-60
2021/11/30 12:55:53;;;;;;;6.40;3.30;;;11.70;93.70;;;;;;5067601;28;20083;-60
2021/11/30 12:58:39;;;;;;;5.68;3.13;;;11.70;93.60;;;;;;5067657;28;20150;-58
2021/11/30 13:01:26;;;;;;;5.88;3.15;;;11.70;93.70;;;;;;5058376;28;20499;-58
2021/11/30 13:04:29;;;;;;;5.82;3.38;;;11.70;93.70;;;;;;5067988;28;20044;-58
2021/11/30 13:07:06;;;;;;;8.82;3.85;;;11.70;93.70;;;;;;5067775;28;20083;-59
2021/11/30 13:09:45;;;;;;;8.38;4.13;;;11.80;93.70;;;;;;5067759;28;20107;-57
2021/11/30 13:12:34;;;;;;;7.45;3.55;;;11.70;93.50;;;;;;5066407;28;20084;-59